createdAt,value
2018-04-09T00:01:27.254Z,11.80
2018-04-09T00:03:54.698Z,11.80
2018-04-09T00:06:22.137Z,11.70
2018-04-09T00:08:49.580Z,11.70
2018-04-09T00:11:17.926Z,11.80
2018-04-09T00:13:46.157Z,11.70
2018-04-09T00:16:14.377Z,11.90
2018-04-09T00:18:41.839Z,11.80
2018-04-09T00:21:09.294Z,11.70
2018-04-09T00:23:36.733Z,11.70
2018-04-09T00:26:04.937Z,11.60
2018-04-09T00:28:32.382Z,11.60
2018-04-09T00:30:59.868Z,11.60
2018-04-09T00:33:27.373Z,11.60
2018-04-09T00:35:56.473Z,11.60
2018-04-09T00:38:24.689Z,11.70
2018-04-09T00:40:52.128Z,11.70
2018-04-09T00:43:19.618Z,11.80
2018-04-09T00:45:47.110Z,11.80
2018-04-09T00:48:15.318Z,11.80
2018-04-09T00:50:42.756Z,11.80
2018-04-09T00:53:10.982Z,11.70
2018-04-09T00:55:38.443Z,11.70
2018-04-09T00:58:05.879Z,11.70
2018-04-09T01:00:33.328Z,11.80
2018-04-09T01:03:00.802Z,11.70
2018-04-09T01:05:28.246Z,11.70
2018-04-09T01:07:55.694Z,11.70
2018-04-09T01:10:23.168Z,11.80
2018-04-09T01:12:50.633Z,11.70
2018-04-09T01:15:18.138Z,11.80
2018-04-09T01:17:46.369Z,11.70
2018-04-09T01:20:13.831Z,11.70
2018-04-09T01:22:41.273Z,11.70
2018-04-09T01:25:08.716Z,11.80
2018-04-09T01:27:36.161Z,11.70
2018-04-09T01:30:03.623Z,11.80
2018-04-09T01:32:31.146Z,11.70
2018-04-09T01:34:59.359Z,11.70
2018-04-09T01:37:26.878Z,11.70
2018-04-09T01:39:54.370Z,11.80
2018-04-09T01:42:21.800Z,11.70
2018-04-09T01:44:49.265Z,11.80
2018-04-09T01:47:16.704Z,11.80
2018-04-09T01:49:44.172Z,11.70
2018-04-09T01:52:11.607Z,11.70
2018-04-09T01:54:39.046Z,11.70
2018-04-09T01:57:06.486Z,11.80
2018-04-09T01:59:33.982Z,11.70
2018-04-09T02:02:01.431Z,11.80
2018-04-09T02:04:28.878Z,11.80
2018-04-09T02:06:56.328Z,11.70
2018-04-09T02:09:23.770Z,11.80
2018-04-09T02:11:51.226Z,11.90
2018-04-09T02:14:18.700Z,11.90
2018-04-09T02:16:46.259Z,11.90
2018-04-09T02:19:13.726Z,11.90
2018-04-09T02:21:41.950Z,11.80
2018-04-09T02:24:09.401Z,11.80
2018-04-09T02:26:36.866Z,11.70
2018-04-09T02:29:04.306Z,11.80
2018-04-09T02:31:34.983Z,11.70
2018-04-09T02:34:02.417Z,11.80
2018-04-09T02:36:29.854Z,11.90
2018-04-09T02:38:57.290Z,11.90
2018-04-09T02:41:24.741Z,11.80
2018-04-09T02:43:52.943Z,11.80
2018-04-09T02:46:20.411Z,11.80
2018-04-09T02:48:47.852Z,11.80
2018-04-09T02:51:15.306Z,11.80
2018-04-09T02:53:42.731Z,11.80
2018-04-09T02:56:11.032Z,11.80
2018-04-09T02:58:38.485Z,11.80
2018-04-09T03:01:05.930Z,11.80
2018-04-09T03:03:33.378Z,11.70
2018-04-09T03:06:01.591Z,11.80
2018-04-09T03:08:29.040Z,11.80
2018-04-09T03:10:56.492Z,11.70
2018-04-09T03:13:23.928Z,11.60
2018-04-09T03:15:51.378Z,11.60
2018-04-09T03:18:19.579Z,11.80
2018-04-09T03:20:47.021Z,11.80
2018-04-09T03:23:14.499Z,11.60
2018-04-09T03:25:41.935Z,11.70
2018-04-09T03:28:09.385Z,11.70
2018-04-09T03:30:36.822Z,11.60
2018-04-09T03:33:05.038Z,11.60
2018-04-09T03:35:32.640Z,11.60
2018-04-09T03:38:00.089Z,11.60
2018-04-09T03:40:27.584Z,11.60
2018-04-09T03:42:55.792Z,11.50
2018-04-09T03:45:23.235Z,11.50
2018-04-09T03:47:50.698Z,11.60
2018-04-09T03:50:18.129Z,11.60
2018-04-09T03:52:45.573Z,11.50
2018-04-09T03:55:13.807Z,11.50
2018-04-09T03:57:41.243Z,11.50
2018-04-09T04:00:08.683Z,11.50
2018-04-09T04:02:36.118Z,11.40
2018-04-09T04:05:04.334Z,11.50
2018-04-09T04:07:31.774Z,11.40
2018-04-09T04:09:59.214Z,11.50
2018-04-09T04:12:26.685Z,11.40
2018-04-09T04:14:54.127Z,11.50
2018-04-09T04:17:33.354Z,11.50
2018-04-09T04:20:13.586Z,11.40
2018-04-09T04:22:41.047Z,11.40
2018-04-09T04:25:08.505Z,11.40
2018-04-09T04:27:35.961Z,11.40
2018-04-09T04:30:03.413Z,11.50
2018-04-09T04:32:30.838Z,11.60
2018-04-09T04:34:58.295Z,11.60
2018-04-09T04:37:25.726Z,11.50
2018-04-09T04:39:53.171Z,11.50
2018-04-09T04:42:20.610Z,11.40
2018-04-09T04:44:48.838Z,11.50
2018-04-09T04:47:16.270Z,11.40
2018-04-09T04:49:44.481Z,11.40
2018-04-09T04:52:11.961Z,11.40
2018-04-09T04:54:40.178Z,11.40
2018-04-09T04:57:07.618Z,11.40
2018-04-09T04:59:35.065Z,11.40
2018-04-09T05:02:02.588Z,11.50
2018-04-09T05:04:30.042Z,11.40
2018-04-09T05:06:57.465Z,11.60
2018-04-09T05:09:24.970Z,11.60
2018-04-09T05:11:52.435Z,11.60
2018-04-09T05:14:20.646Z,11.60
2018-04-09T05:16:48.078Z,11.50
2018-04-09T05:19:15.522Z,11.60
2018-04-09T05:21:43.738Z,11.80
2018-04-09T05:24:11.194Z,11.70
2018-04-09T05:26:38.648Z,11.90
2018-04-09T05:29:06.206Z,11.90
2018-04-09T05:31:33.642Z,11.90
2018-04-09T05:34:01.118Z,11.90
2018-04-09T05:36:28.659Z,11.90
2018-04-09T05:38:56.848Z,11.90
2018-04-09T05:41:24.289Z,11.90
2018-04-09T05:43:51.732Z,12.00
2018-04-09T05:46:19.942Z,12.10
2018-04-09T05:48:47.379Z,12.00
2018-04-09T05:51:14.834Z,12.00
2018-04-09T05:53:42.282Z,12.10
2018-04-09T05:56:09.745Z,12.20
2018-04-09T05:58:37.214Z,12.30
2018-04-09T06:01:04.657Z,12.30
2018-04-09T06:03:32.121Z,12.30
2018-04-09T06:05:59.614Z,12.40
2018-04-09T06:08:27.026Z,12.40
2018-04-09T06:10:54.467Z,12.40
2018-04-09T06:13:21.930Z,12.50
2018-04-09T06:15:49.364Z,12.50
2018-04-09T06:18:16.870Z,12.50
2018-04-09T06:20:44.352Z,12.70
2018-04-09T06:23:11.789Z,12.80
2018-04-09T06:25:39.223Z,12.80
2018-04-09T06:28:06.679Z,12.90
2018-04-09T06:30:34.110Z,13.00
2018-04-09T06:33:02.351Z,13.10
2018-04-09T06:35:29.802Z,13.10
2018-04-09T06:37:57.304Z,13.10
2018-04-09T06:40:25.499Z,13.20
2018-04-09T06:42:52.946Z,13.10
2018-04-09T06:45:20.424Z,13.20
2018-04-09T06:47:47.854Z,13.30
2018-04-09T06:50:15.328Z,13.40
2018-04-09T06:52:42.792Z,13.40
2018-04-09T06:55:10.243Z,13.50
2018-04-09T06:57:37.673Z,13.60
2018-04-09T07:00:05.898Z,13.80
2018-04-09T07:02:33.355Z,13.80
2018-04-09T07:05:00.805Z,13.80
2018-04-09T07:07:28.259Z,13.80
2018-04-09T07:09:55.708Z,13.80
2018-04-09T07:12:23.143Z,13.80
2018-04-09T07:14:50.591Z,13.90
2018-04-09T07:17:18.039Z,13.80
2018-04-09T07:19:46.290Z,13.90
2018-04-09T07:22:13.722Z,13.90
2018-04-09T07:24:41.219Z,14.00
2018-04-09T07:27:08.675Z,14.10
2018-04-09T07:29:36.893Z,14.20
2018-04-09T07:32:04.330Z,14.20
2018-04-09T07:34:31.786Z,14.30
2018-04-09T07:36:59.226Z,14.40
2018-04-09T07:39:27.434Z,14.80
2018-04-09T07:41:54.937Z,14.70
2018-04-09T07:44:22.454Z,14.90
2018-04-09T07:46:50.316Z,15.10
2018-04-09T07:49:17.902Z,15.20
2018-04-09T07:51:45.413Z,15.30
2018-04-09T07:54:12.806Z,15.40
2018-04-09T07:56:40.367Z,15.60
2018-04-09T07:59:07.867Z,15.80
2018-04-09T08:01:35.480Z,15.90
2018-04-09T08:04:02.997Z,16.10
2018-04-09T08:06:30.584Z,16.20
2018-04-09T08:08:58.038Z,16.40
2018-04-09T08:11:25.485Z,16.50
2018-04-09T08:13:52.935Z,16.60
2018-04-09T08:16:20.406Z,16.70
2018-04-09T08:18:47.881Z,16.70
2018-04-09T08:21:15.342Z,16.80
2018-04-09T08:23:42.782Z,16.90
2018-04-09T08:26:10.253Z,17.10
2018-04-09T08:28:37.708Z,17.20
2018-04-09T08:31:05.136Z,17.30
2018-04-09T08:33:32.586Z,17.40
2018-04-09T08:36:00.034Z,17.50
2018-04-09T08:38:27.491Z,17.60
2018-04-09T08:40:54.933Z,17.70
2018-04-09T08:43:23.163Z,18.00
2018-04-09T08:45:50.603Z,17.90
2018-04-09T08:48:18.056Z,18.20
2018-04-09T08:50:45.516Z,18.30
2018-04-09T08:53:12.982Z,18.50
2018-04-09T08:55:40.445Z,18.70
2018-04-09T08:58:07.880Z,18.70
2018-04-09T09:00:35.312Z,18.80
2018-04-09T09:03:03.067Z,18.80
2018-04-09T09:05:31.399Z,19.00
2018-04-09T09:07:58.982Z,19.00
2018-04-09T09:10:28.155Z,19.30
2018-04-09T09:12:56.505Z,19.20
2018-04-09T09:15:24.115Z,19.20
2018-04-09T09:17:51.676Z,19.10
2018-04-09T09:20:19.100Z,19.00
2018-04-09T09:22:47.385Z,19.10
2018-04-09T09:25:14.862Z,19.20
2018-04-09T09:27:42.332Z,19.30
2018-04-09T09:30:10.570Z,19.50
2018-04-09T09:32:38.024Z,19.50
2018-04-09T09:35:05.567Z,19.50
2018-04-09T09:37:33.105Z,19.50
2018-04-09T09:40:01.481Z,19.60
2018-04-09T09:42:28.991Z,19.60
2018-04-09T09:44:56.438Z,19.80
2018-04-09T09:47:24.002Z,20.00
2018-04-09T09:49:51.468Z,20.10
2018-04-09T09:52:18.909Z,20.20
2018-04-09T09:54:46.354Z,20.30
2018-04-09T09:57:14.862Z,20.40
2018-04-09T09:59:43.115Z,20.50
2018-04-09T10:02:10.870Z,20.50
2018-04-09T10:04:38.408Z,20.50
2018-04-09T10:07:05.909Z,20.50
2018-04-09T10:09:33.341Z,20.60
2018-04-09T10:12:00.786Z,20.70
2018-04-09T10:14:28.227Z,20.70
2018-04-09T10:16:55.658Z,20.60
2018-04-09T10:19:23.868Z,20.40
2018-04-09T10:21:51.343Z,20.40
2018-04-09T10:24:18.822Z,20.40
2018-04-09T10:26:46.335Z,20.50
2018-04-09T10:29:13.756Z,20.70
2018-04-09T10:31:41.249Z,20.70
2018-04-09T10:34:08.671Z,20.80
2018-04-09T10:36:36.886Z,21.10
2018-04-09T10:39:04.350Z,21.10
2018-04-09T10:41:31.794Z,21.30
2018-04-09T10:43:59.233Z,21.40
2018-04-09T10:46:26.687Z,21.50
2018-04-09T10:48:54.875Z,21.50
2018-04-09T10:51:23.058Z,21.50
2018-04-09T10:53:50.503Z,21.20
2018-04-09T10:56:17.974Z,20.80
2018-04-09T10:58:45.409Z,20.90
2018-04-09T11:01:12.907Z,21.00
2018-04-09T11:03:40.357Z,21.20
2018-04-09T11:06:07.819Z,21.20
2018-04-09T11:08:35.310Z,21.50
2018-04-09T11:11:03.587Z,21.70
2018-04-09T11:13:31.814Z,21.70
2018-04-09T11:15:59.246Z,21.70
2018-04-09T11:18:26.694Z,21.60
2018-04-09T11:20:54.148Z,21.70
2018-04-09T11:23:21.590Z,21.70
2018-04-09T11:25:49.805Z,21.50
2018-04-09T11:28:17.273Z,21.50
2018-04-09T11:30:44.724Z,21.40
2018-04-09T11:33:12.189Z,21.50
2018-04-09T11:35:39.635Z,21.50
2018-04-09T11:38:07.113Z,21.40
2018-04-09T11:40:34.581Z,21.20
2018-04-09T11:43:02.035Z,20.90
2018-04-09T11:45:29.492Z,21.00
2018-04-09T11:47:56.930Z,21.20
2018-04-09T11:50:24.391Z,21.20
2018-04-09T11:52:51.827Z,21.20
2018-04-09T11:55:19.402Z,21.30
2018-04-09T12:00:13.547Z,21.30
2018-04-09T12:02:40.985Z,21.20
2018-04-09T12:05:09.207Z,21.20
2018-04-09T12:07:36.642Z,21.20
2018-04-09T12:10:04.150Z,21.50
2018-04-09T12:12:32.376Z,21.80
2018-04-09T12:14:59.874Z,21.80
2018-04-09T12:17:27.340Z,22.00
2018-04-09T12:19:54.793Z,22.10
2018-04-09T12:22:22.249Z,22.30
2018-04-09T12:24:49.689Z,22.40
2018-04-09T12:27:17.159Z,22.20
2018-04-09T12:29:44.595Z,21.90
2018-04-09T12:32:12.083Z,21.80
2018-04-09T12:34:39.541Z,21.60
2018-04-09T12:37:07.008Z,21.50
2018-04-09T12:39:34.488Z,21.80
2018-04-09T12:42:02.701Z,22.00
2018-04-09T12:44:30.133Z,21.90
2018-04-09T12:46:57.889Z,21.70
2018-04-09T12:49:25.320Z,21.70
2018-04-09T12:51:53.607Z,21.30
2018-04-09T12:54:21.044Z,21.20
2018-04-09T12:56:48.536Z,21.10
2018-04-09T12:59:15.965Z,21.10
2018-04-09T13:01:44.172Z,21.00
2018-04-09T13:04:11.617Z,20.90
2018-04-09T13:06:39.054Z,20.70
2018-04-09T13:09:07.270Z,20.80
2018-04-09T13:11:34.777Z,20.80
2018-04-09T13:14:02.988Z,21.00
2018-04-09T13:16:30.427Z,21.00
2018-04-09T13:18:57.891Z,20.80
2018-04-09T13:21:25.327Z,20.90
2018-04-09T13:23:53.531Z,21.60
2018-04-09T13:26:20.967Z,21.60
2018-04-09T13:28:48.418Z,21.80
2018-04-09T13:31:15.898Z,22.00
2018-04-09T13:33:44.136Z,22.40
2018-04-09T13:36:12.329Z,22.60
2018-04-09T13:38:39.863Z,22.50
2018-04-09T13:41:08.064Z,22.70
2018-04-09T13:43:35.513Z,22.70
2018-04-09T13:46:02.960Z,22.80
2018-04-09T13:48:31.161Z,22.60
2018-04-09T13:50:58.616Z,22.60
2018-04-09T13:53:26.058Z,22.60
2018-04-09T13:55:53.533Z,22.80
2018-04-09T13:58:20.960Z,23.00
2018-04-09T14:00:49.174Z,23.10
2018-04-09T14:03:16.609Z,23.10
2018-04-09T14:05:44.048Z,23.20
2018-04-09T14:08:11.507Z,23.40
2018-04-09T14:10:38.976Z,23.40
2018-04-09T14:13:06.414Z,23.40
2018-04-09T14:15:34.613Z,23.30
2018-04-09T14:18:02.057Z,23.30
2018-04-09T14:20:29.511Z,23.60
2018-04-09T14:22:57.047Z,23.80
2018-04-09T14:25:25.256Z,23.80
2018-04-09T14:27:52.699Z,23.80
2018-04-09T14:30:20.151Z,23.70
2018-04-09T14:32:47.595Z,23.70
2018-04-09T14:35:15.806Z,24.20
2018-04-09T14:37:43.254Z,24.20
2018-04-09T14:40:10.702Z,24.60
2018-04-09T14:42:38.164Z,24.90
2018-04-09T14:45:05.632Z,24.50
2018-04-09T14:47:33.080Z,24.60
2018-04-09T14:50:00.555Z,24.60
2018-04-09T14:52:28.400Z,24.70
2018-04-09T14:54:55.862Z,24.40
2018-04-09T14:57:23.312Z,24.40
2018-04-09T14:59:50.755Z,24.00
2018-04-09T15:02:19.010Z,23.70
2018-04-09T15:04:47.239Z,23.90
2018-04-09T15:07:14.808Z,23.90
2018-04-09T15:09:42.244Z,23.90
2018-04-09T15:12:09.712Z,23.30
2018-04-09T15:14:37.245Z,23.30
2018-04-09T15:17:04.704Z,23.20
2018-04-09T15:19:32.172Z,23.00
2018-04-09T15:21:59.632Z,23.20
2018-04-09T15:24:27.079Z,23.40
2018-04-09T15:26:54.753Z,23.40
2018-04-09T15:29:22.241Z,23.10
2018-04-09T15:31:49.830Z,22.90
2018-04-09T15:34:18.245Z,22.80
2018-04-09T15:36:45.801Z,22.70
2018-04-09T15:39:13.629Z,22.50
2018-04-09T15:41:41.848Z,22.30
2018-04-09T15:44:09.300Z,22.40
2018-04-09T15:46:36.796Z,22.40
2018-04-09T15:49:04.227Z,22.20
2018-04-09T15:51:31.828Z,21.70
2018-04-09T15:54:00.207Z,21.50
2018-04-09T15:56:28.426Z,21.50
2018-04-09T15:58:55.861Z,21.50
2018-04-09T16:01:23.306Z,21.50
2018-04-09T16:03:50.878Z,21.50
2018-04-09T16:06:18.331Z,21.30
2018-04-09T16:08:45.786Z,21.30
2018-04-09T16:11:13.231Z,21.20
2018-04-09T16:13:41.519Z,21.10
2018-04-09T16:16:09.116Z,21.10
2018-04-09T16:18:36.607Z,21.10
2018-04-09T16:21:04.814Z,21.10
2018-04-09T16:23:32.248Z,21.00
2018-04-09T16:26:00.477Z,20.80
2018-04-09T16:28:27.932Z,20.80
2018-04-09T16:30:56.210Z,20.70
2018-04-09T16:33:23.653Z,20.70
2018-04-09T16:35:51.114Z,20.60
2018-04-09T16:38:18.648Z,20.50
2018-04-09T16:40:46.112Z,20.50
2018-04-09T16:43:13.743Z,20.40
2018-04-09T16:45:41.987Z,20.20
2018-04-09T16:48:09.427Z,20.10
2018-04-09T16:50:37.680Z,19.80
2018-04-09T16:53:05.168Z,19.80
2018-04-09T16:55:33.413Z,19.70
2018-04-09T16:58:00.855Z,19.70
2018-04-09T17:00:28.287Z,19.60
2018-04-09T17:02:56.516Z,19.40
2018-04-09T17:05:24.007Z,19.40
2018-04-09T17:07:51.853Z,19.30
2018-04-09T17:10:19.301Z,19.30
2018-04-09T17:12:46.841Z,19.20
2018-04-09T17:15:14.294Z,19.00
2018-04-09T17:17:41.734Z,18.90
2018-04-09T17:20:09.188Z,18.90
2018-04-09T17:22:36.616Z,18.80
2018-04-09T17:25:04.874Z,18.60
2018-04-09T17:27:32.291Z,18.60
2018-04-09T17:29:59.782Z,18.60
2018-04-09T17:32:27.217Z,18.50
2018-04-09T17:34:54.672Z,18.30
2018-04-09T17:37:22.124Z,18.30
2018-04-09T17:39:49.626Z,18.30
2018-04-09T17:42:17.831Z,18.10
2018-04-09T17:44:45.275Z,18.00
2018-04-09T17:47:12.722Z,17.90
2018-04-09T17:49:40.176Z,17.90
2018-04-09T17:52:07.628Z,17.80
2018-04-09T17:54:35.100Z,17.80
2018-04-09T17:57:02.546Z,17.70
2018-04-09T17:59:29.980Z,17.70
2018-04-09T18:01:57.412Z,17.60
2018-04-09T18:04:24.906Z,17.70
2018-04-09T18:06:52.314Z,17.60
2018-04-09T18:09:19.772Z,17.50
2018-04-09T18:11:47.239Z,17.50
2018-04-09T18:14:14.739Z,17.40
2018-04-09T18:16:42.972Z,17.20
2018-04-09T18:19:10.446Z,17.20
2018-04-09T18:21:37.908Z,17.20
2018-04-09T18:24:05.374Z,17.10
2018-04-09T18:29:24.169Z,17.00
2018-04-09T18:31:51.636Z,16.90
2018-04-09T18:34:19.064Z,16.90
2018-04-09T18:36:47.272Z,16.80
2018-04-09T18:39:14.745Z,16.80
2018-04-09T18:41:42.194Z,16.70
2018-04-09T18:44:09.632Z,16.70
2018-04-09T18:46:37.432Z,16.70
2018-04-09T18:49:04.872Z,16.70
2018-04-09T18:51:32.364Z,16.60
2018-04-09T18:53:59.793Z,16.60
2018-04-09T18:56:27.453Z,16.60
2018-04-09T18:58:54.888Z,16.50
2018-04-09T19:01:22.345Z,16.40
2018-04-09T19:03:49.772Z,16.30
2018-04-09T19:06:17.997Z,16.30
2018-04-09T19:08:45.440Z,16.30
2018-04-09T19:11:13.167Z,16.30
2018-04-09T19:13:40.582Z,16.10
2018-04-09T19:16:08.036Z,16.10
2018-04-09T19:18:36.273Z,16.00
2018-04-09T19:21:03.744Z,16.00
2018-04-09T19:23:31.183Z,16.00
2018-04-09T19:25:58.674Z,15.90
2018-04-09T19:28:26.117Z,15.80
2018-04-09T19:30:53.576Z,15.80
2018-04-09T19:33:21.003Z,15.80
2018-04-09T19:35:54.033Z,15.70
2018-04-09T19:38:27.281Z,15.70
2018-04-09T19:40:54.748Z,15.70
2018-04-09T19:43:22.355Z,15.60
2018-04-09T19:45:49.788Z,15.60
2018-04-09T19:48:17.417Z,15.50
2018-04-09T19:50:44.997Z,15.40
2018-04-09T19:53:12.666Z,15.40
2018-04-09T19:55:40.808Z,15.40
2018-04-09T19:58:08.436Z,15.40
2018-04-09T20:00:35.922Z,15.50
2018-04-09T20:03:03.544Z,15.50
2018-04-09T20:05:31.081Z,15.40
2018-04-09T20:07:58.532Z,15.40
2018-04-09T20:10:25.964Z,15.30
2018-04-09T20:12:53.494Z,15.30
2018-04-09T20:15:21.789Z,15.10
2018-04-09T20:17:50.018Z,15.30
2018-04-09T20:20:17.544Z,15.20
2018-04-09T20:22:45.844Z,15.20
2018-04-09T20:25:13.282Z,15.10
2018-04-09T20:27:40.765Z,15.00
2018-04-09T20:30:08.309Z,14.90
2018-04-09T20:32:36.006Z,14.90
2018-04-09T20:35:03.717Z,14.80
2018-04-09T20:37:31.500Z,14.80
2018-04-09T20:39:58.978Z,14.70
2018-04-09T20:42:26.646Z,14.70
2018-04-09T20:44:54.404Z,14.60
2018-04-09T20:47:22.611Z,14.60
2018-04-09T20:49:50.169Z,14.40
2018-04-09T20:52:17.605Z,14.40
2018-04-09T20:54:45.926Z,14.40
2018-04-09T20:57:15.536Z,14.40
2018-04-09T20:59:43.059Z,14.30
2018-04-09T21:02:11.684Z,14.40
2018-04-09T21:04:39.446Z,14.40
2018-04-09T21:07:06.935Z,14.30
2018-04-09T21:09:34.645Z,14.30
2018-04-09T21:12:02.152Z,14.20
2018-04-09T21:14:29.597Z,14.10
2018-04-09T21:16:57.079Z,14.20
2018-04-09T21:19:24.536Z,14.10
2018-04-09T21:21:52.808Z,14.10
2018-04-09T21:24:20.265Z,14.10
2018-04-09T21:26:47.868Z,14.00
2018-04-09T21:29:15.363Z,14.10
2018-04-09T21:31:42.820Z,14.10
2018-04-09T21:34:10.258Z,14.00
2018-04-09T21:36:37.911Z,14.10
2018-04-09T21:39:08.308Z,14.10
2018-04-09T21:41:35.973Z,14.10
2018-04-09T21:44:03.444Z,14.10
2018-04-09T21:46:30.881Z,14.10
2018-04-09T21:48:59.178Z,13.90
2018-04-09T21:51:27.477Z,13.90
2018-04-09T21:53:54.948Z,13.90
2018-04-09T21:56:22.420Z,13.90
2018-04-09T21:58:50.013Z,13.80
2018-04-09T22:01:17.452Z,13.90
2018-04-09T22:03:44.895Z,13.80
2018-04-09T22:06:13.101Z,13.70
2018-04-09T22:08:40.528Z,13.70
2018-04-09T22:11:08.736Z,13.60
2018-04-09T22:13:36.172Z,13.60
2018-04-09T22:16:03.616Z,13.60
2018-04-09T22:18:31.837Z,13.60
2018-04-09T22:20:59.281Z,13.60
2018-04-09T22:23:26.757Z,13.70
2018-04-09T22:25:54.288Z,13.80
2018-04-09T22:28:21.728Z,13.60
2018-04-09T22:30:49.172Z,13.70
2018-04-09T22:33:17.402Z,13.60
2018-04-09T22:35:44.989Z,13.60
2018-04-09T22:38:12.530Z,13.60
2018-04-09T22:40:40.053Z,13.50
2018-04-09T22:43:07.517Z,13.50
2018-04-09T22:45:34.983Z,13.50
2018-04-09T22:48:02.431Z,13.50
2018-04-09T22:50:29.901Z,13.50
2018-04-09T22:52:57.361Z,13.50
2018-04-09T22:55:24.807Z,13.60
2018-04-09T22:57:52.314Z,13.50
2018-04-09T23:00:21.328Z,13.50
2018-04-09T23:02:48.770Z,13.50
2018-04-09T23:05:17.054Z,13.40
2018-04-09T23:07:44.616Z,13.40
2018-04-09T23:10:12.089Z,13.50
2018-04-09T23:12:39.609Z,13.50
2018-04-09T23:15:07.859Z,13.50
2018-04-09T23:17:35.359Z,13.50
2018-04-09T23:20:04.257Z,13.40
2018-04-09T23:22:34.566Z,13.40
2018-04-09T23:25:03.264Z,13.30
2018-04-09T23:27:31.798Z,13.30
2018-04-09T23:30:00.079Z,13.20
2018-04-09T23:32:27.636Z,13.30
2018-04-09T23:34:55.768Z,13.40
2018-04-09T23:37:23.469Z,13.30
2018-04-09T23:39:50.923Z,13.40
2018-04-09T23:42:18.397Z,13.30
2018-04-09T23:44:47.001Z,13.30
2018-04-09T23:47:14.503Z,13.30
2018-04-09T23:49:42.136Z,13.30
2018-04-09T23:52:09.634Z,13.30
2018-04-09T23:54:37.181Z,13.40
2018-04-09T23:57:05.788Z,13.30
